Time;durP1;ratioP1;P1;durP2;ratioP2;P2;SDS_P1;SDS_P2;PMS_P1;PMS_P2;Temp;Humidity;BMP_temperature;BMP_pressure;BME280_temperature;BME280_humidity;BME280_pressure;Samples;Min_cycle;Max_cycle;Signal;HPM_P1;HPM_P2
2023/06/22 00:02:25;;;;;;;4.90;3.00;;;24.40;67.30;23.90;96650.00;;;;4999099;28;20229;-84
2023/06/22 00:04:52;;;;;;;4.43;2.97;;;24.40;67.30;23.90;96627.00;;;;4999730;28;20205;-85
2023/06/22 00:07:19;;;;;;;2.83;2.40;;;24.40;67.30;23.90;96622.00;;;;4998953;28;20207;-84
2023/06/22 00:09:46;;;;;;;2.87;2.57;;;24.30;67.40;23.80;96615.00;;;;4998784;28;20285;-85
2023/06/22 00:12:13;;;;;;;3.23;2.33;;;24.30;67.40;23.80;96604.00;;;;4999102;28;20249;-84
2023/06/22 00:14:42;;;;;;;3.50;2.90;;;24.40;67.50;23.80;96604.00;;;;4997186;28;20233;-83
2023/06/22 00:17:09;;;;;;;3.13;2.87;;;24.30;67.70;23.80;96587.00;;;;4996923;28;20262;-84
2023/06/22 00:19:36;;;;;;;4.30;3.37;;;24.30;67.70;23.80;96580.00;;;;4996301;28;20711;-85
2023/06/22 00:22:04;;;;;;;2.77;2.57;;;24.30;67.80;23.80;96579.00;;;;4997477;28;20209;-84
2023/06/22 00:24:31;;;;;;;3.37;3.03;;;24.30;67.90;23.80;96581.00;;;;4989681;28;20198;-84
2023/06/22 00:26:58;;;;;;;2.90;2.70;;;24.20;68.00;23.80;96579.00;;;;4989043;28;20237;-85
2023/06/22 00:29:25;;;;;;;3.03;2.73;;;24.20;68.00;23.70;96576.00;;;;4996895;28;20225;-84
2023/06/22 00:31:54;;;;;;;3.20;2.90;;;24.20;68.00;23.70;96580.00;;;;4996844;28;20673;-80
2023/06/22 00:34:21;;;;;;;4.67;2.90;;;24.20;68.10;23.70;96565.00;;;;4980087;28;20294;-81
2023/06/22 00:36:48;;;;;;;3.77;3.00;;;24.20;68.00;23.70;96561.00;;;;4990434;28;20222;-81
2023/06/22 00:39:15;;;;;;;3.77;2.70;;;24.20;68.00;23.70;96562.00;;;;4994302;28;20254;-81
2023/06/22 00:41:42;;;;;;;5.70;2.90;;;24.20;68.00;23.70;96566.00;;;;4995490;28;20222;-81
2023/06/22 00:44:09;;;;;;;5.43;2.63;;;24.20;68.10;23.70;96555.00;;;;4995187;28;20769;-81
2023/06/22 00:46:36;;;;;;;5.50;3.10;;;24.10;68.00;23.60;96554.00;;;;4991036;28;20227;-81
2023/06/22 00:49:05;;;;;;;4.37;2.47;;;24.10;68.10;23.60;96556.00;;;;4983357;28;20253;-82
2023/06/22 00:51:33;;;;;;;3.50;2.77;;;24.10;68.20;23.60;96555.00;;;;4990949;28;20230;-82
2023/06/22 00:54:00;;;;;;;3.67;2.80;;;24.10;68.20;23.60;96563.00;;;;4995498;28;20209;-82
2023/06/22 00:56:29;;;;;;;3.33;2.83;;;24.10;68.30;23.60;96563.00;;;;4989368;28;20233;-82
2023/06/22 00:58:59;;;;;;;3.97;2.83;;;24.10;68.30;23.60;96565.00;;;;4997291;28;20230;-82
2023/06/22 01:01:26;;;;;;;4.40;2.70;;;24.00;68.30;23.60;96562.00;;;;4996847;28;20213;-82
2023/06/22 01:03:56;;;;;;;3.33;2.53;;;24.00;68.30;23.50;96560.00;;;;4997131;28;20289;-82
2023/06/22 01:06:37;;;;;;;5.73;2.70;;;24.00;68.40;23.50;96564.00;;;;4993198;28;20301;-82
2023/06/22 01:09:16;;;;;;;2.83;2.50;;;24.00;68.60;23.50;96565.00;;;;4991104;28;20300;-82
2023/06/22 01:11:49;;;;;;;3.80;2.60;;;24.00;68.50;23.50;96560.00;;;;5007100;23;20221;-86
2023/06/22 01:14:24;;;;;;;4.17;2.60;;;24.00;68.40;23.50;96564.00;;;;4991754;28;20268;-86
2023/06/22 01:16:55;;;;;;;3.63;2.80;;;24.00;68.60;23.50;96554.00;;;;4990935;28;20653;-86
2023/06/22 01:19:41;;;;;;;2.77;2.50;;;23.90;68.50;23.40;96561.00;;;;4991529;28;20223;-86
2023/06/22 01:22:15;;;;;;;2.60;2.40;;;23.90;68.80;23.40;96560.00;;;;4975937;28;20284;-86
2023/06/22 01:24:58;;;;;;;3.27;2.57;;;23.90;68.60;23.40;96554.00;;;;4979612;28;20256;-86
2023/06/22 01:27:42;;;;;;;4.30;2.67;;;23.90;68.70;23.40;96560.00;;;;4986286;28;20209;-86
2023/06/22 01:30:15;;;;;;;3.53;2.50;;;23.90;68.80;23.40;96552.00;;;;4985905;28;20220;-86
2023/06/22 01:32:43;;;;;;;2.67;2.47;;;23.90;68.60;23.40;96549.00;;;;4980307;28;20851;-86
2023/06/22 01:35:13;;;;;;;4.43;3.03;;;23.90;68.50;23.40;96540.00;;;;4976772;28;20206;-85
2023/06/22 01:37:40;;;;;;;2.40;2.10;;;23.90;68.60;23.30;96534.00;;;;4981461;28;20779;-86
2023/06/22 01:40:10;;;;;;;2.90;2.47;;;23.80;68.50;23.30;96540.00;;;;4971143;28;20285;-86
2023/06/22 01:42:38;;;;;;;2.93;2.57;;;23.80;68.60;23.30;96537.00;;;;4983158;28;20281;-86
2023/06/22 01:45:11;;;;;;;3.53;2.70;;;23.80;68.50;23.30;96540.00;;;;4982608;28;20287;-85
2023/06/22 01:47:40;;;;;;;3.67;2.67;;;23.80;68.60;23.20;96531.00;;;;4990566;28;20200;-86
2023/06/22 01:50:10;;;;;;;3.00;2.63;;;23.80;68.70;23.20;96538.00;;;;4983329;28;20646;-86
2023/06/22 01:52:38;;;;;;;3.00;2.50;;;23.70;68.70;23.20;96540.00;;;;4974517;28;20263;-86
2023/06/22 01:55:08;;;;;;;5.10;2.53;;;23.70;68.80;23.10;96537.00;;;;4989423;28;20288;-85
2023/06/22 01:57:38;;;;;;;3.57;2.87;;;23.70;68.90;23.10;96529.00;;;;4982201;28;20710;-86
2023/06/22 02:00:13;;;;;;;3.67;2.93;;;23.60;69.00;23.10;96532.00;;;;4981688;28;20210;-86
2023/06/22 02:02:52;;;;;;;3.53;2.67;;;23.60;69.00;23.10;96544.00;;;;4966951;28;20230;-86
2023/06/22 02:05:24;;;;;;;3.10;2.53;;;23.60;69.10;23.10;96543.00;;;;4983418;28;20299;-85
2023/06/22 02:08:04;;;;;;;2.60;1.90;;;23.60;69.00;23.00;96541.00;;;;4991665;28;20222;-86
2023/06/22 02:10:33;;;;;;;3.13;2.67;;;23.60;69.10;23.00;96538.00;;;;4992712;28;20654;-85
2023/06/22 02:13:03;;;;;;;4.13;2.93;;;23.60;69.10;23.00;96546.00;;;;4986293;28;20288;-86
2023/06/22 02:15:32;;;;;;;2.97;2.60;;;23.50;69.10;23.00;96546.00;;;;4973686;28;20202;-85
2023/06/22 02:18:01;;;;;;;3.30;2.60;;;23.50;69.20;23.00;96545.00;;;;4980950;28;20309;-86
2023/06/22 02:20:28;;;;;;;4.17;2.70;;;23.50;69.40;23.00;96552.00;;;;4973952;28;20648;-85
2023/06/22 02:22:55;;;;;;;4.00;2.77;;;23.50;69.30;22.90;96546.00;;;;4980145;28;20228;-85
2023/06/22 02:25:23;;;;;;;3.57;2.63;;;23.40;69.40;22.90;96550.00;;;;4986204;28;20626;-85
2023/06/22 02:27:50;;;;;;;3.33;2.87;;;23.40;69.50;22.90;96552.00;;;;4978978;28;20236;-85
2023/06/22 02:30:18;;;;;;;2.57;2.30;;;23.40;69.60;22.90;96560.00;;;;4982869;28;20264;-85
2023/06/22 02:32:45;;;;;;;5.17;3.00;;;23.40;69.70;22.90;96558.00;;;;4973309;28;20213;-86
2023/06/22 02:35:13;;;;;;;2.83;2.63;;;23.40;70.00;22.90;96556.00;;;;4971098;28;20393;-86
2023/06/22 02:37:42;;;;;;;3.57;2.70;;;23.40;70.20;22.90;96555.00;;;;4982262;28;20745;-86
2023/06/22 02:40:11;;;;;;;4.07;2.70;;;23.40;70.30;22.80;96554.00;;;;4980524;28;20206;-86
2023/06/22 02:42:38;;;;;;;4.40;2.83;;;23.40;70.40;22.80;96560.00;;;;4977833;28;20233;-86
2023/06/22 02:45:07;;;;;;;4.57;3.50;;;23.40;70.50;22.80;96556.00;;;;4993314;28;20287;-86
2023/06/22 02:47:36;;;;;;;3.70;3.40;;;23.30;70.60;22.80;96560.00;;;;4988772;28;20203;-86
2023/06/22 02:50:03;;;;;;;5.50;2.97;;;23.30;70.70;22.80;96562.00;;;;4979328;28;20615;-87
2023/06/22 02:52:32;;;;;;;6.23;3.47;;;23.30;70.80;22.80;96550.00;;;;4973814;28;20201;-87
2023/06/22 02:54:59;;;;;;;3.67;3.23;;;23.30;71.00;22.80;96548.00;;;;4973960;28;20288;-87
2023/06/22 02:57:26;;;;;;;3.03;2.83;;;23.30;71.00;22.80;96538.00;;;;4983501;28;20250;-87
2023/06/22 02:59:55;;;;;;;4.60;3.20;;;23.30;71.00;22.80;96543.00;;;;4984416;28;20244;-86
2023/06/22 03:02:22;;;;;;;3.90;2.83;;;23.30;71.90;22.80;96540.00;;;;4992619;28;20292;-87
2023/06/22 03:04:49;;;;;;;2.70;2.30;;;23.30;71.30;22.80;96537.00;;;;4985054;28;20239;-86
2023/06/22 03:07:18;;;;;;;4.40;2.63;;;23.30;71.20;22.80;96534.00;;;;4974062;28;20206;-86
2023/06/22 03:09:46;;;;;;;3.10;2.80;;;23.30;71.20;22.80;96533.00;;;;4975322;28;20231;-87
2023/06/22 03:12:14;;;;;;;3.60;3.03;;;23.30;71.30;22.90;96535.00;;;;4979987;28;20238;-86
2023/06/22 03:14:41;;;;;;;3.77;2.77;;;23.30;71.10;22.90;96537.00;;;;4985013;28;20218;-87
2023/06/22 03:17:08;;;;;;;3.37;3.07;;;23.40;71.20;22.90;96535.00;;;;4985151;28;20212;-87
2023/06/22 03:19:35;;;;;;;4.33;3.17;;;23.40;71.90;22.90;96533.00;;;;4974598;28;20222;-87
2023/06/22 03:22:02;;;;;;;6.50;3.33;;;23.40;71.30;22.90;96536.00;;;;4977947;28;20203;-87
2023/06/22 03:24:30;;;;;;;3.77;2.60;;;23.40;71.30;22.90;96534.00;;;;4984494;28;20252;-86
2023/06/22 03:26:58;;;;;;;4.13;3.20;;;23.40;71.20;22.90;96530.00;;;;4985929;28;20220;-87
2023/06/22 03:29:26;;;;;;;4.07;3.10;;;23.40;71.40;22.90;96531.00;;;;4987373;28;20251;-86
2023/06/22 03:31:53;;;;;;;4.00;3.40;;;23.40;71.30;23.00;96527.00;;;;4979182;28;20195;-86
2023/06/22 03:34:20;;;;;;;3.00;2.70;;;23.40;71.30;22.90;96524.00;;;;4982558;28;20241;-86
2023/06/22 03:36:47;;;;;;;5.97;3.53;;;23.40;71.30;23.00;96530.00;;;;4981846;28;20292;-86
2023/06/22 03:39:14;;;;;;;4.70;3.83;;;23.40;71.30;23.00;96521.00;;;;4975982;28;20259;-86
2023/06/22 03:41:41;;;;;;;4.67;3.60;;;23.40;71.30;23.00;96530.00;;;;4981292;28;20240;-86
2023/06/22 03:44:12;;;;;;;5.33;3.33;;;23.40;71.30;23.00;96534.00;;;;4989756;28;20206;-86
2023/06/22 03:46:39;;;;;;;3.47;3.17;;;23.40;71.40;23.00;96531.00;;;;4993636;28;20216;-86
2023/06/22 03:49:06;;;;;;;4.20;3.23;;;23.50;71.40;23.00;96538.00;;;;4987150;28;20304;-86
2023/06/22 03:51:34;;;;;;;6.53;3.63;;;23.50;71.50;23.00;96527.00;;;;4992687;28;20285;-86
2023/06/22 03:54:01;;;;;;;3.87;3.17;;;23.40;71.50;23.00;96525.00;;;;4982380;28;20203;-86
2023/06/22 03:56:28;;;;;;;3.33;3.03;;;23.50;71.60;23.00;96532.00;;;;4983628;28;20289;-86
2023/06/22 03:58:56;;;;;;;4.67;3.77;;;23.50;71.60;23.00;96534.00;;;;4984608;28;20310;-86
2023/06/22 04:01:24;;;;;;;4.23;3.73;;;23.40;71.70;23.00;96540.00;;;;4981075;28;20205;-86
2023/06/22 04:03:52;;;;;;;3.87;3.57;;;23.50;71.90;23.00;96544.00;;;;4981757;28;20279;-87
2023/06/22 04:06:19;;;;;;;5.10;3.90;;;23.40;71.80;23.00;96548.00;;;;4982734;28;20238;-87
2023/06/22 04:08:50;;;;;;;4.30;3.80;;;23.40;71.80;23.00;96546.00;;;;4988709;28;20247;-87
2023/06/22 04:11:18;;;;;;;4.10;3.70;;;23.50;72.00;23.00;96536.00;;;;4974607;28;20217;-86
2023/06/22 04:13:45;;;;;;;5.30;3.63;;;23.40;72.00;23.00;96542.00;;;;4987943;28;20299;-86
2023/06/22 04:16:13;;;;;;;4.17;3.77;;;23.50;72.20;23.00;96541.00;;;;4981491;28;20242;-85
2023/06/22 04:18:41;;;;;;;4.23;3.57;;;23.50;72.30;23.00;96534.00;;;;4987385;28;20251;-86
2023/06/22 04:21:09;;;;;;;5.73;3.87;;;23.50;72.40;23.00;96536.00;;;;4980340;28;20202;-86
2023/06/22 04:23:36;;;;;;;5.40;3.90;;;23.50;72.40;23.00;96536.00;;;;4978424;28;20225;-88
2023/06/22 04:26:03;;;;;;;5.07;2.93;;;23.50;72.40;23.10;96529.00;;;;4984460;28;20242;-87
2023/06/22 04:28:34;;;;;;;5.93;3.17;;;23.50;72.60;23.10;96529.00;;;;4981052;28;20340;-88
2023/06/22 04:31:02;;;;;;;4.17;3.80;;;23.50;72.50;23.10;96533.00;;;;4981110;28;20205;-90
2023/06/22 04:33:30;;;;;;;4.70;3.63;;;23.60;72.60;23.10;96533.00;;;;4980676;28;20620;-90
2023/06/22 04:36:00;;;;;;;5.50;3.57;;;23.60;72.60;23.10;96522.00;;;;4986985;28;20575;-90
2023/06/22 04:38:28;;;;;;;3.43;3.13;;;23.60;72.80;23.20;96532.00;;;;4987516;28;20671;-89
2023/06/22 04:40:55;;;;;;;5.23;3.90;;;23.60;72.70;23.20;96529.00;;;;4979515;28;20199;-89
2023/06/22 04:43:22;;;;;;;4.43;3.60;;;23.60;73.40;23.20;96527.00;;;;4982064;28;20245;-89
2023/06/22 04:45:52;;;;;;;6.03;3.57;;;23.60;72.70;23.20;96526.00;;;;4972807;28;20261;-90
2023/06/22 04:48:24;;;;;;;5.23;3.40;;;23.70;72.90;23.30;96530.00;;;;4983167;28;20684;-89
2023/06/22 04:50:51;;;;;;;5.10;3.60;;;23.70;72.90;23.30;96533.00;;;;4985826;28;20264;-90
2023/06/22 04:53:20;;;;;;;6.43;3.70;;;23.70;72.80;23.30;96538.00;;;;4981138;28;20570;-89
2023/06/22 04:55:53;;;;;;;4.57;3.70;;;23.70;72.90;23.30;96536.00;;;;4988440;28;20669;-90
2023/06/22 04:58:22;;;;;;;6.83;3.67;;;23.80;73.00;23.30;96543.00;;;;4983759;28;20261;-89
2023/06/22 05:00:52;;;;;;;7.20;3.57;;;23.80;73.00;23.40;96538.00;;;;4968294;28;20206;-89
2023/06/22 05:03:31;;;;;;;5.57;4.37;;;23.80;73.00;23.40;96536.00;;;;4981706;28;20230;-91
2023/06/22 05:05:58;;;;;;;4.67;3.33;;;23.80;73.50;23.40;96533.00;;;;4992123;28;20214;-89
2023/06/22 05:08:31;;;;;;;5.97;4.53;;;23.80;73.10;23.40;96534.00;;;;4973262;28;20229;-91
2023/06/22 05:11:01;;;;;;;4.20;3.70;;;23.90;73.40;23.40;96529.00;;;;4978810;28;20226;-89
2023/06/22 05:13:29;;;;;;;5.37;3.57;;;23.90;73.20;23.50;96529.00;;;;4991506;28;20236;-90
2023/06/22 05:16:00;;;;;;;4.80;3.90;;;23.90;73.30;23.50;96519.00;;;;4993155;28;20237;-90
2023/06/22 05:18:31;;;;;;;4.27;3.53;;;24.00;73.30;23.50;96523.00;;;;4984206;28;20229;-90
2023/06/22 05:21:09;;;;;;;4.30;3.87;;;24.00;73.30;23.50;96519.00;;;;4994548;28;20300;-89
2023/06/22 05:23:45;;;;;;;4.90;3.90;;;24.00;73.50;23.60;96524.00;;;;4972868;28;20199;-89
2023/06/22 05:26:15;;;;;;;4.83;3.50;;;24.00;73.20;23.60;96526.00;;;;4980669;28;20201;-90
2023/06/22 05:28:46;;;;;;;3.87;3.00;;;24.00;73.20;23.70;96528.00;;;;4991771;28;20257;-90
2023/06/22 05:31:19;;;;;;;5.17;3.67;;;24.10;73.30;23.70;96527.00;;;;4982788;28;20229;-89
2023/06/22 05:33:47;;;;;;;6.17;3.30;;;24.10;73.50;23.70;96527.00;;;;4985720;28;20209;-89
2023/06/22 05:36:15;;;;;;;4.43;4.03;;;24.10;73.30;23.80;96535.00;;;;4984007;28;20288;-90
2023/06/22 05:38:44;;;;;;;4.73;3.20;;;24.20;73.10;23.80;96529.00;;;;4981289;28;20257;-91
2023/06/22 05:41:11;;;;;;;4.17;3.77;;;24.20;73.20;23.90;96536.00;;;;4991453;28;20199;-90
2023/06/22 05:43:38;;;;;;;5.80;3.67;;;24.30;73.20;23.90;96535.00;;;;4982707;28;20206;-90
2023/06/22 05:46:06;;;;;;;5.43;3.37;;;24.30;73.10;24.00;96532.00;;;;4974959;28;20239;-90
2023/06/22 05:48:36;;;;;;;4.07;3.50;;;24.30;73.10;24.00;96533.00;;;;4982393;28;20226;-90
2023/06/22 05:51:03;;;;;;;5.10;3.57;;;24.40;73.10;24.10;96522.00;;;;4982315;28;20198;-90
2023/06/22 05:53:30;;;;;;;5.57;3.17;;;24.40;73.00;24.10;96527.00;;;;4985775;28;20318;-89
2023/06/22 05:55:59;;;;;;;5.03;3.33;;;24.50;73.20;24.20;96524.00;;;;4979191;28;20203;-90
2023/06/22 05:58:26;;;;;;;4.67;3.20;;;24.50;73.20;24.20;96520.00;;;;4981931;28;20230;-90
2023/06/22 06:00:53;;;;;;;3.97;3.30;;;24.60;73.10;24.30;96525.00;;;;4988650;28;20203;-90
2023/06/22 06:03:20;;;;;;;6.10;3.10;;;24.60;72.90;24.30;96521.00;;;;4991958;28;20202;-90
2023/06/22 06:05:47;;;;;;;4.03;3.10;;;24.60;72.90;24.30;96514.00;;;;4982601;28;20207;-90
2023/06/22 06:08:14;;;;;;;3.10;2.77;;;24.70;72.90;24.40;96510.00;;;;4980785;28;20317;-90
2023/06/22 06:10:42;;;;;;;5.13;3.30;;;24.70;72.70;24.40;96508.00;;;;4986863;28;20199;-90
2023/06/22 06:13:10;;;;;;;3.33;3.03;;;24.70;72.60;24.50;96512.00;;;;4985689;28;20249;-89
2023/06/22 06:15:39;;;;;;;4.00;2.90;;;24.80;72.60;24.50;96513.00;;;;4986746;28;20207;-90
2023/06/22 06:18:07;;;;;;;4.97;3.27;;;24.80;72.60;24.60;96500.00;;;;4988295;28;20226;-90
2023/06/22 06:20:35;;;;;;;4.50;2.70;;;24.90;72.50;24.60;96495.00;;;;4987080;28;20231;-90
2023/06/22 06:23:02;;;;;;;5.63;2.97;;;24.90;72.40;24.70;96498.00;;;;4979064;28;20207;-90
2023/06/22 06:25:29;;;;;;;3.60;2.87;;;25.00;72.30;24.80;96503.00;;;;4983050;28;20273;-91
2023/06/22 06:27:56;;;;;;;4.10;3.10;;;25.10;72.20;24.80;96500.00;;;;4985209;28;20219;-90
2023/06/22 06:30:25;;;;;;;2.70;2.50;;;25.10;72.00;24.90;96515.00;;;;4990250;28;20293;-90
2023/06/22 06:32:52;;;;;;;5.57;2.50;;;25.20;71.60;24.90;96521.00;;;;4987473;28;20226;-89
2023/06/22 06:35:19;;;;;;;4.70;2.40;;;25.20;71.50;25.00;96513.00;;;;4991251;28;20278;-90
2023/06/22 06:37:51;;;;;;;3.57;2.17;;;25.30;71.40;25.10;96506.00;;;;4987912;28;20286;-90
2023/06/22 06:40:19;;;;;;;5.23;3.03;;;25.30;71.40;25.10;96503.00;;;;4989459;28;20317;-90
2023/06/22 06:42:49;;;;;;;4.27;2.47;;;25.40;71.10;25.20;96499.00;;;;4982280;28;20647;-89
2023/06/22 06:45:22;;;;;;;2.40;2.17;;;25.40;71.00;25.30;96494.00;;;;4986155;28;20196;-89
2023/06/22 06:47:52;;;;;;;3.77;2.23;;;25.50;70.80;25.30;96494.00;;;;4971111;28;20636;-90
2023/06/22 06:50:20;;;;;;;5.67;2.47;;;25.60;70.80;25.40;96494.00;;;;4976282;28;20262;-89
2023/06/22 06:52:47;;;;;;;3.17;2.53;;;25.60;70.10;25.50;96492.00;;;;4987380;28;20204;-90
2023/06/22 06:55:14;;;;;;;2.73;2.50;;;25.70;69.80;25.50;96490.00;;;;4983239;28;20233;-90
2023/06/22 06:57:43;;;;;;;3.00;1.97;;;25.80;70.10;25.60;96475.00;;;;4983628;28;20628;-92
2023/06/22 07:00:13;;;;;;;4.60;2.30;;;25.80;70.00;25.70;96479.00;;;;4969663;28;20254;-90
2023/06/22 07:02:42;;;;;;;4.57;2.20;;;25.90;70.20;25.80;96475.00;;;;4978906;28;20213;-90
2023/06/22 07:05:14;;;;;;;4.10;2.63;;;26.00;70.40;25.90;96488.00;;;;4971439;28;20199;-89
2023/06/22 07:07:42;;;;;;;3.10;2.47;;;26.10;70.20;26.10;96490.00;;;;4985103;28;20202;-90
2023/06/22 07:10:10;;;;;;;4.23;2.37;;;26.20;70.10;26.20;96494.00;;;;4983170;28;20203;-89
2023/06/22 07:12:37;;;;;;;2.87;2.20;;;26.30;69.80;26.30;96488.00;;;;4998765;23;20235;-88
2023/06/22 07:15:07;;;;;;;3.03;2.20;;;26.50;69.70;26.40;96484.00;;;;4997106;28;20198;-88
2023/06/22 07:17:35;;;;;;;2.20;2.00;;;26.60;69.80;26.60;96495.00;;;;4997726;28;20226;-88
2023/06/22 07:20:04;;;;;;;2.97;2.27;;;26.70;69.60;26.70;96490.00;;;;4987888;28;20223;-88
2023/06/22 07:22:33;;;;;;;4.70;2.60;;;26.80;69.40;26.80;96490.00;;;;4966744;28;20218;-88
2023/06/22 07:25:01;;;;;;;3.70;2.20;;;26.90;69.20;27.00;96495.00;;;;4994888;28;20230;-88
2023/06/22 07:27:37;;;;;;;3.05;1.85;;;27.10;68.50;27.10;96496.00;;;;4993620;28;20203;-89
2023/06/22 07:30:06;;;;;;;3.20;2.10;;;27.20;68.00;27.20;96489.00;;;;4991750;28;20266;-89
2023/06/22 07:32:34;;;;;;;3.75;2.00;;;27.40;67.30;27.40;96495.00;;;;4980693;28;20233;-89
2023/06/22 07:35:04;;;;;;;4.00;2.45;;;27.50;66.50;27.50;96492.00;;;;4992018;28;20203;-89
2023/06/22 07:37:34;;;;;;;3.35;2.08;;;27.60;66.30;27.60;96492.00;;;;4974862;28;20196;-89
2023/06/22 07:40:05;;;;;;;2.75;1.98;;;27.70;66.10;27.80;96484.00;;;;4991747;28;20227;-89
2023/06/22 07:42:34;;;;;;;1.83;1.63;;;27.80;65.60;27.90;96484.00;;;;4994158;28;20223;-89
2023/06/22 07:45:02;;;;;;;3.25;1.85;;;28.00;65.10;28.00;96483.00;;;;4999430;28;20199;-88
2023/06/22 07:47:30;;;;;;;2.50;1.58;;;28.10;64.80;28.20;96487.00;;;;4993962;28;20203;-89
2023/06/22 07:50:01;;;;;;;3.30;1.88;;;28.30;64.10;28.30;96479.00;;;;4997484;28;20199;-89
2023/06/22 07:52:28;;;;;;;3.80;1.85;;;28.40;63.30;28.40;96477.00;;;;4990255;28;20227;-89
2023/06/22 07:54:57;;;;;;;6.63;2.13;;;28.50;63.10;28.60;96463.00;;;;4991284;28;20232;-89
2023/06/22 07:57:31;;;;;;;3.05;2.13;;;28.70;62.40;28.70;96467.00;;;;4997541;28;20227;-89
2023/06/22 08:00:00;;;;;;;5.13;1.90;;;28.80;62.30;28.80;96467.00;;;;5002630;28;20690;-89
2023/06/22 08:02:27;;;;;;;3.38;2.08;;;28.90;62.30;29.00;96473.00;;;;5003800;28;20274;-88
2023/06/22 08:04:55;;;;;;;3.35;2.13;;;29.10;61.40;29.20;96471.00;;;;4999181;28;20209;-89
2023/06/22 08:07:22;;;;;;;3.08;2.22;;;29.20;61.60;29.30;96471.00;;;;4996675;28;20283;-89
2023/06/22 08:09:49;;;;;;;2.92;1.75;;;29.30;60.90;29.40;96472.00;;;;5002159;28;20213;-90
2023/06/22 08:12:18;;;;;;;3.22;1.85;;;29.50;60.60;29.50;96466.00;;;;5000765;28;20231;-88
2023/06/22 08:14:47;;;;;;;3.33;2.05;;;29.60;60.00;29.70;96470.00;;;;4980565;28;20210;-89
2023/06/22 08:17:14;;;;;;;2.17;1.98;;;29.70;59.80;29.80;96463.00;;;;4981717;28;20231;-88
2023/06/22 08:19:42;;;;;;;6.60;2.17;;;29.80;59.50;29.90;96471.00;;;;4996678;28;20241;-89
2023/06/22 08:22:09;;;;;;;3.35;2.33;;;30.00;59.20;30.10;96471.00;;;;5005065;28;20219;-88
2023/06/22 08:24:37;;;;;;;3.45;1.85;;;30.10;59.30;30.20;96466.00;;;;4989254;28;20226;-89
2023/06/22 08:27:08;;;;;;;5.78;2.75;;;30.30;59.10;30.40;96461.00;;;;5001003;28;20213;-88
2023/06/22 08:29:37;;;;;;;2.22;1.83;;;30.40;58.50;30.50;96452.00;;;;4994082;28;20199;-89
2023/06/22 08:32:05;;;;;;;2.55;1.70;;;30.50;58.30;30.60;96458.00;;;;4987578;28;20233;-90
2023/06/22 08:34:32;;;;;;;2.60;2.05;;;30.70;58.30;30.80;96463.00;;;;4991936;28;20638;-88
2023/06/22 08:36:59;;;;;;;2.53;2.33;;;30.80;57.90;30.90;96472.00;;;;4991334;28;20234;-88
2023/06/22 08:39:27;;;;;;;2.10;1.92;;;30.90;57.20;31.00;96461.00;;;;4993662;28;20318;-88
2023/06/22 08:41:54;;;;;;;2.10;1.90;;;31.00;57.30;31.20;96462.00;;;;4997574;28;20591;-87
2023/06/22 08:44:22;;;;;;;3.22;1.90;;;31.20;56.90;31.30;96463.00;;;;4992714;28;20207;-88
2023/06/22 08:46:51;;;;;;;2.67;2.10;;;31.30;56.60;31.50;96462.00;;;;4992425;28;20294;-89
2023/06/22 08:49:18;;;;;;;2.25;1.90;;;31.40;56.10;31.60;96452.00;;;;4989555;28;20285;-88
2023/06/22 08:51:47;;;;;;;3.25;2.08;;;31.60;56.10;31.70;96464.00;;;;5012701;23;20261;-82
2023/06/22 08:54:15;;;;;;;4.68;2.10;;;31.70;56.70;31.90;96457.00;;;;4997936;28;20194;-82
2023/06/22 08:56:43;;;;;;;3.78;2.00;;;31.90;55.80;32.00;96459.00;;;;5003471;28;20269;-82
2023/06/22 08:59:11;;;;;;;3.00;2.17;;;32.00;55.10;32.10;96455.00;;;;4999480;28;20277;-83
2023/06/22 09:01:38;;;;;;;4.28;2.30;;;32.10;55.10;32.20;96455.00;;;;4998791;28;20258;-82
2023/06/22 09:04:09;;;;;;;2.75;1.98;;;32.20;54.70;32.30;96461.00;;;;5002244;28;20221;-83
2023/06/22 09:06:41;;;;;;;3.53;2.17;;;32.30;54.40;32.40;96454.00;;;;4996733;28;20290;-82
2023/06/22 09:09:08;;;;;;;2.05;1.75;;;32.50;54.20;32.50;96448.00;;;;5002135;28;20260;-82
2023/06/22 09:11:35;;;;;;;3.90;2.33;;;32.50;53.90;32.60;96457.00;;;;5000894;28;20273;-83
2023/06/22 09:14:03;;;;;;;4.47;2.28;;;32.70;53.50;32.70;96452.00;;;;5002609;28;20199;-82
2023/06/22 09:16:31;;;;;;;4.85;2.25;;;32.70;53.30;32.80;96462.00;;;;4998286;28;20651;-82
2023/06/22 09:18:58;;;;;;;3.38;2.13;;;32.80;52.90;32.90;96462.00;;;;5000862;28;20660;-82
2023/06/22 09:21:28;;;;;;;3.53;2.33;;;32.90;52.10;32.90;96456.00;;;;5001700;28;20215;-83
2023/06/22 09:23:55;;;;;;;5.05;2.50;;;33.00;52.00;33.00;96459.00;;;;5010887;28;20202;-83
2023/06/22 09:26:23;;;;;;;3.22;1.88;;;33.00;52.10;33.00;96456.00;;;;5001817;28;20652;-83
2023/06/22 09:28:51;;;;;;;4.07;1.95;;;33.10;52.30;33.10;96455.00;;;;5007251;28;20285;-83
2023/06/22 09:31:25;;;;;;;12.45;2.83;;;33.20;52.20;33.20;96461.00;;;;4999748;28;20232;-83
2023/06/22 09:33:53;;;;;;;2.67;1.73;;;33.20;52.00;33.30;96458.00;;;;4993532;28;20203;-81
2023/06/22 09:36:21;;;;;;;4.32;2.42;;;33.30;51.80;33.40;96448.00;;;;5015724;28;20225;-82
2023/06/22 09:38:55;;;;;;;4.70;2.22;;;33.40;51.80;33.50;96456.00;;;;5005556;28;20222;-82
2023/06/22 09:41:22;;;;;;;2.42;2.10;;;33.50;51.30;33.60;96450.00;;;;5009474;28;20313;-82
2023/06/22 09:43:50;;;;;;;7.22;2.38;;;33.60;51.50;33.70;96448.00;;;;5017436;28;20229;-82
2023/06/22 09:46:20;;;;;;;5.50;2.50;;;33.80;51.60;33.90;96441.00;;;;5017619;28;20194;-83
2023/06/22 09:48:47;;;;;;;7.75;2.58;;;33.90;51.00;34.00;96440.00;;;;5006830;28;20206;-82
2023/06/22 09:51:15;;;;;;;2.97;2.00;;;34.10;50.80;34.20;96440.00;;;;4999423;28;20222;-83
2023/06/22 09:53:42;;;;;;;2.65;2.17;;;34.30;50.30;34.30;96438.00;;;;5001018;28;20282;-82
2023/06/22 09:56:14;;;;;;;3.33;2.50;;;34.40;50.40;34.40;96440.00;;;;4999090;28;20223;-82
2023/06/22 09:58:43;;;;;;;5.07;1.83;;;34.60;50.10;34.60;96449.00;;;;4999203;28;20293;-81
2023/06/22 10:01:11;;;;;;;3.78;2.30;;;34.80;49.70;34.80;96448.00;;;;4996353;28;20234;-81
2023/06/22 10:03:38;;;;;;;5.05;2.22;;;35.10;49.70;34.90;96443.00;;;;4984621;28;20203;-82
2023/06/22 10:06:06;;;;;;;3.95;2.03;;;35.20;49.30;35.10;96447.00;;;;4995060;28;20212;-82
2023/06/22 10:08:33;;;;;;;3.67;2.10;;;35.50;49.20;35.20;96436.00;;;;4990771;28;20206;-82
2023/06/22 10:11:00;;;;;;;3.13;1.85;;;35.70;48.80;35.40;96443.00;;;;4999270;28;20285;-83
2023/06/22 10:13:29;;;;;;;3.42;2.45;;;35.90;48.40;35.50;96441.00;;;;4995504;28;20233;-82
2023/06/22 10:15:57;;;;;;;4.03;1.83;;;36.10;47.80;35.70;96444.00;;;;4981611;28;20234;-82
2023/06/22 10:18:26;;;;;;;3.03;1.95;;;36.20;47.00;35.80;96437.00;;;;5002370;28;20199;-82
2023/06/22 10:20:54;;;;;;;3.67;1.92;;;36.40;47.00;35.90;96435.00;;;;5004179;28;20227;-82
2023/06/22 10:23:23;;;;;;;3.10;1.98;;;36.50;46.80;36.00;96429.00;;;;4996993;28;20199;-83
2023/06/22 10:25:50;;;;;;;3.20;2.00;;;36.60;47.10;36.10;96425.00;;;;5004606;28;20660;-84
2023/06/22 10:28:17;;;;;;;4.38;2.30;;;36.80;47.10;36.30;96427.00;;;;4998636;28;20771;-83
2023/06/22 10:30:46;;;;;;;5.38;2.10;;;36.90;47.00;36.40;96419.00;;;;5007449;28;20285;-82
2023/06/22 10:33:14;;;;;;;3.92;2.10;;;37.10;46.60;36.50;96426.00;;;;5005137;28;20286;-83
2023/06/22 10:35:41;;;;;;;4.70;2.53;;;37.20;46.30;36.60;96422.00;;;;5005569;28;20198;-83
2023/06/22 10:38:08;;;;;;;5.47;2.95;;;37.30;45.90;36.80;96419.00;;;;5005080;28;20277;-84
2023/06/22 10:40:36;;;;;;;5.28;1.90;;;37.40;45.20;36.90;96412.00;;;;5007615;28;20254;-83
2023/06/22 10:43:03;;;;;;;2.22;1.80;;;37.40;45.70;37.00;96418.00;;;;5004400;28;20229;-84
2023/06/22 10:45:31;;;;;;;3.08;2.05;;;37.50;45.50;37.10;96419.00;;;;4997989;28;20206;-82
2023/06/22 10:47:59;;;;;;;4.32;2.30;;;37.60;44.60;37.20;96409.00;;;;5010478;28;20658;-82
2023/06/22 10:50:27;;;;;;;3.13;2.00;;;37.70;44.90;37.30;96410.00;;;;4996421;28;20580;-83
2023/06/22 10:52:55;;;;;;;2.70;2.50;;;37.70;44.70;37.40;96406.00;;;;4995446;28;20305;-83
2023/06/22 10:55:24;;;;;;;5.50;2.30;;;37.80;44.40;37.50;96403.00;;;;5003245;28;20198;-84
2023/06/22 10:57:52;;;;;;;4.90;2.33;;;37.80;44.50;37.50;96409.00;;;;4981050;28;20198;-83
2023/06/22 11:00:21;;;;;;;3.25;2.35;;;37.80;44.20;37.50;96408.00;;;;4998631;28;20221;-83
2023/06/22 11:02:48;;;;;;;6.47;2.58;;;37.80;43.80;37.50;96403.00;;;;4999036;28;20218;-82